Bookmark and Share
Track history (hours):
 

Karmel

Last reported at 2014-Apr-23 00:17 UTC. Time now 2014-Apr-23 09:19 UTC.
Position N 53°44' W 006°11'.

Length 90 m; draft 5.4 m.

Type: Cargo ship. MMSI: 256632000.

NotesDate/timePositionNaut miles runAvg speedWind from/ knotsBaromVisibWave heightAir tempDewpointWater temp
2014-Apr-23 00:17N 53°44' W 006°11'0 0.0
2014-Apr-22 23:11N 53°44' W 006°11'0 0.0
2014-Apr-22 22:32N 53°44' W 006°11'0 0.1
2014-Apr-22 21:20N 53°44' W 006°11'0 0.1
2014-Apr-22 20:29N 53°44' W 006°11'0 0.5
2014-Apr-22 19:33N 53°44' W 006°11'4310.7
2014-Apr-22 15:30N 54°18' W 005°26'1010.6
2014-Apr-22 14:33N 54°28' W 005°23'1212.1
2014-Apr-22 13:33N 54°40' W 005°26'3511.2
2014-Apr-22 10:24N 55°11' W 005°56'8 9.1
2014-Apr-22 09:33N 55°18' W 006°04'8 7.7
2014-Apr-22 08:34N 55°22' W 006°15'9 8.7
2014-Apr-22 07:33N 55°27' W 006°28'8 8.2
2014-Apr-22 06:33N 55°33' W 006°38'9 8.8
2014-Apr-22 05:33N 55°39' W 006°47'9 9.4
2014-Apr-22 04:33N 55°48' W 006°56'138 9.8
2014-Apr-21 14:27N 58°03' W 006°08'1010.6
2014-Apr-21 13:32N 58°11' W 005°56'1010.6
2014-Apr-21 12:32N 58°19' W 005°44'33 9.7
2014-Apr-21 09:09N 58°41' W 004°57'710.4
2014-Apr-21 08:28N 58°41' W 004°44'1011.0
2014-Apr-21 07:33N 58°41' W 004°25'1111.2
2014-Apr-21 06:33N 58°42' W 004°03'1111.3
2014-Apr-21 05:33N 58°42' W 003°41'1412.1
2014-Apr-21 04:22N 58°42' W 003°13'1012.5
2014-Apr-21 03:33N 58°42' W 002°54'41810.7
2014-Apr-19 12:34N 57°46' E 010°12'1110.6
2014-Apr-19 11:33N 57°47' E 010°32'10 9.8
2014-Apr-19 10:33N 57°47' E 010°50'1110.5
2014-Apr-19 09:33N 57°43' E 011°09'1110.7
2014-Apr-19 08:33N 57°38' E 011°27'8 8.2
2014-Apr-19 07:33N 57°36' E 011°42'0 0.0
2014-Apr-19 06:33N 57°36' E 011°42'2 1.7
2014-Apr-19 05:33N 57°34' E 011°39'1010.3
2014-Apr-19 04:33N 57°24' E 011°44'1411.5
2014-Apr-19 03:19N 57°11' E 011°53'811.0
2014-Apr-19 02:33N 57°03' E 011°59'1111.2
2014-Apr-19 01:33N 56°53' E 012°05'1111.0
2014-Apr-19 00:33N 56°42' E 012°10'1310.7
2014-Apr-18 23:22N 56°30' E 012°17'910.8
2014-Apr-18 22:33N 56°21' E 012°21'1111.0
2014-Apr-18 21:33N 56°11' E 012°28'1111.0
2014-Apr-18 20:33N 56°03' E 012°40'1010.3
2014-Apr-18 19:33N 55°52' E 012°44'1110.8
2014-Apr-18 18:33N 55°42' E 012°41'1010.4
2014-Apr-18 17:33N 55°31' E 012°43'10 9.8
2014-Apr-18 16:34N 55°22' E 012°41'9 9.3
2014-Apr-18 15:33N 55°16' E 012°54'1110.7
2014-Apr-18 14:33N 55°15' E 013°12'2210.7
2014-Apr-18 12:33N 55°15' E 013°50'1111.3
2014-Apr-18 11:33N 55°13' E 014°10'1010.2
2014-Apr-18 10:33N 55°19' E 014°24'1110.9
2014-Apr-18 09:33N 55°27' E 014°39'1110.7
2014-Apr-18 08:33N 55°28' E 014°58'1310.9
2014-Apr-18 07:23N 55°29' E 015°20'197 4.5
2014-Apr-16 11:31N 55°43' E 021°07'0 0.0
2014-Apr-16 10:31N 55°43' E 021°07'200 5.0
2014-Apr-14 18:34N 55°26' E 015°15'2412.0
2014-Apr-14 16:33N 55°20' E 014°34'1212.2
2014-Apr-14 15:33N 55°10' E 014°20'1211.8
2014-Apr-14 14:33N 55°11' E 013°60'1211.9
2014-Apr-14 13:33N 55°11' E 013°39'2412.2
2014-Apr-14 11:33N 55°14' E 012°56'1211.7
2014-Apr-14 10:34N 55°19' E 012°38'1111.4
2014-Apr-14 09:33N 55°30' E 012°33'6 6.3
2014-Apr-14 08:33N 55°36' E 012°29'0 0.0
2014-Apr-14 07:33N 55°36' E 012°29'0 0.0
2014-Apr-14 06:33N 55°36' E 012°29'0 0.0
2014-Apr-14 05:30N 55°36' E 012°29'0 0.0
2014-Apr-13 22:31N 55°36' E 012°29'0 0.0
2014-Apr-13 21:31N 55°36' E 012°29'0 0.0
2014-Apr-13 20:31N 55°36' E 012°29'0 0.0
2014-Apr-13 19:31N 55°36' E 012°29'0 0.0
2014-Apr-13 18:33N 55°36' E 012°29'0 0.0
2014-Apr-13 17:33N 55°36' E 012°29'0 0.0
2014-Apr-13 16:33N 55°36' E 012°29'0 0.0
2014-Apr-13 15:33N 55°36' E 012°29'0 0.0
2014-Apr-13 14:33N 55°36' E 012°29'0 0.0
2014-Apr-13 13:31N 55°36' E 012°29'0 0.0
2014-Apr-13 12:33N 55°36' E 012°29'3 2.6
2014-Apr-13 11:33N 55°33' E 012°30'1 1.3
2014-Apr-13 10:31N 55°32' E 012°30'0 0.0
2014-Apr-13 09:31N 55°32' E 012°30'0 0.0
2014-Apr-13 08:31N 55°32' E 012°30'0 0.0
2014-Apr-13 07:31N 55°32' E 012°30'0 0.0
2014-Apr-13 06:31N 55°32' E 012°30'0 0.0
2014-Apr-13 05:31N 55°32' E 012°30'0 0.0
2014-Apr-13 04:31N 55°32' E 012°30'0 0.0
2014-Apr-13 03:28N 55°32' E 012°30'0 0.0
2014-Apr-13 02:31N 55°32' E 012°30'0 0.0
2014-Apr-13 01:31N 55°32' E 012°30'0 0.0
2014-Apr-13 00:31N 55°32' E 012°30'  

Dump ship's entire track history

sailing weather and tide predictions

Karmel — 9HA2896 — position and weather